BLUE7 KDAL-KCMH
Flight info
| Callsign | BLUE7 |
|---|---|
| Flight time | 1h 38m |
| Altitude | 41000 |
| Route | LNDRE5 BSKAT LITTR Q68 LAJUG GETTA JAKTZ2 |
| Aircraft | C750/M-VGDW/C |
Departure
| Time | 2026-05-09 00:50 |
|---|---|
| Airport | Dallas Love Field (KDAL) |
Arrival
| Time | 2026-05-09 02:29 |
|---|---|
| Airport | John Glenn Columbus International Airport (KCMH) |
| Time | Latitude | Longitude | Altitude | Speed | Heading |
|---|---|---|---|---|---|
| 2026-05-09 00:38 | 32.85605 | -96.85093 | 480 ft | 0 kts | 230° |
| 2026-05-09 00:47 | 32.85605 | -96.85094 | 480 ft | 0 kts | 229° |
| 2026-05-09 00:47 | 32.85602 | -96.85097 | 480 ft | 0 kts | 225° |
| 2026-05-09 00:47 | 32.85600 | -96.85100 | 480 ft | 0 kts | 221° |
| 2026-05-09 00:47 | 32.85597 | -96.85101 | 480 ft | 0 kts | 217° |
| 2026-05-09 00:48 | 32.85577 | -96.85104 | 480 ft | 9 kts | 170° |
| 2026-05-09 00:48 | 32.85486 | -96.85090 | 482 ft | 13 kts | 187° |
| 2026-05-09 00:48 | 32.85443 | -96.85164 | 481 ft | 12 kts | 307° |
| 2026-05-09 00:48 | 32.85514 | -96.85246 | 480 ft | 15 kts | 315° |
| 2026-05-09 00:49 | 32.85602 | -96.85344 | 478 ft | 19 kts | 318° |
| 2026-05-09 00:49 | 32.85705 | -96.85467 | 474 ft | 22 kts | 315° |
| 2026-05-09 00:49 | 32.85783 | -96.85599 | 470 ft | 17 kts | 210° |
| 2026-05-09 00:49 | 32.85680 | -96.85627 | 471 ft | 16 kts | 139° |
| 2026-05-09 00:50 | 32.85562 | -96.85491 | 476 ft | 58 kts | 135° |
| 2026-05-09 00:50 | 32.85036 | -96.84875 | 505 ft | 146 kts | 137° |
| 2026-05-09 00:50 | 32.84197 | -96.83984 | 1247 ft | 174 kts | 137° |
| 2026-05-09 00:50 | 32.83220 | -96.82922 | 2035 ft | 201 kts | 140° |
| 2026-05-09 00:51 | 32.82297 | -96.81926 | 2621 ft | 164 kts | 140° |
| 2026-05-09 00:51 | 32.81478 | -96.81039 | 2934 ft | 162 kts | 140° |
| 2026-05-09 00:51 | 32.80612 | -96.80106 | 3342 ft | 183 kts | 141° |
| 2026-05-09 00:51 | 32.79583 | -96.79005 | 4061 ft | 217 kts | 140° |
| 2026-05-09 00:52 | 32.78445 | -96.77771 | 4969 ft | 226 kts | 140° |
| 2026-05-09 00:52 | 32.77314 | -96.76541 | 5788 ft | 223 kts | 141° |
| 2026-05-09 00:52 | 32.76092 | -96.75223 | 6000 ft | 252 kts | 140° |
| 2026-05-09 00:52 | 32.74717 | -96.73707 | 6055 ft | 279 kts | 137° |
| 2026-05-09 00:53 | 32.73336 | -96.72049 | 6025 ft | 285 kts | 138° |
| 2026-05-09 00:53 | 32.71943 | -96.70438 | 6431 ft | 270 kts | 139° |
| 2026-05-09 00:53 | 32.70649 | -96.68922 | 7689 ft | 261 kts | 139° |
| 2026-05-09 00:53 | 32.69429 | -96.67468 | 9175 ft | 251 kts | 140° |
| 2026-05-09 00:54 | 32.68417 | -96.65826 | 10330 ft | 260 kts | 111° |
| 2026-05-09 00:54 | 32.68246 | -96.63681 | 11386 ft | 267 kts | 87° |
| 2026-05-09 00:54 | 32.68252 | -96.61446 | 12076 ft | 287 kts | 91° |
| 2026-05-09 00:54 | 32.68204 | -96.58940 | 12459 ft | 321 kts | 91° |
| 2026-05-09 00:55 | 32.68235 | -96.56143 | 12740 ft | 356 kts | 79° |
| 2026-05-09 00:55 | 32.69244 | -96.53450 | 13556 ft | 364 kts | 47° |
| 2026-05-09 00:55 | 32.71197 | -96.51588 | 14701 ft | 356 kts | 20° |
| 2026-05-09 00:55 | 32.73412 | -96.50338 | 15822 ft | 359 kts | 24° |
| 2026-05-09 00:56 | 32.75571 | -96.48931 | 16896 ft | 360 kts | 22° |
| 2026-05-09 00:56 | 32.77778 | -96.47519 | 17880 ft | 364 kts | 23° |
| 2026-05-09 00:56 | 32.80015 | -96.46081 | 18778 ft | 369 kts | 22° |
| 2026-05-09 00:56 | 32.82296 | -96.44615 | 19634 ft | 375 kts | 22° |
| 2026-05-09 00:57 | 32.84578 | -96.43144 | 20494 ft | 379 kts | 22° |
| 2026-05-09 00:57 | 32.86901 | -96.41652 | 21281 ft | 385 kts | 22° |
| 2026-05-09 00:57 | 32.89301 | -96.40102 | 22129 ft | 388 kts | 22° |
| 2026-05-09 00:57 | 32.91669 | -96.38575 | 22889 ft | 393 kts | 22° |
| 2026-05-09 00:58 | 32.94064 | -96.37028 | 23625 ft | 398 kts | 22° |
| 2026-05-09 00:58 | 32.96525 | -96.35439 | 24360 ft | 403 kts | 21° |
| 2026-05-09 00:58 | 32.98952 | -96.33659 | 24826 ft | 421 kts | 35° |
| 2026-05-09 00:58 | 33.00852 | -96.30920 | 25470 ft | 437 kts | 56° |
| 2026-05-09 00:59 | 33.02021 | -96.27544 | 26053 ft | 447 kts | 67° |
| 2026-05-09 00:59 | 33.03142 | -96.24122 | 26577 ft | 453 kts | 65° |
| 2026-05-09 00:59 | 33.04349 | -96.20618 | 27145 ft | 459 kts | 64° |
| 2026-05-09 00:59 | 33.05586 | -96.17094 | 27722 ft | 464 kts | 64° |
| 2026-05-09 01:00 | 33.06853 | -96.13506 | 28166 ft | 472 kts | 64° |
| 2026-05-09 01:00 | 33.08129 | -96.09882 | 28751 ft | 476 kts | 64° |
| 2026-05-09 01:00 | 33.09413 | -96.06245 | 29258 ft | 482 kts | 64° |
| 2026-05-09 01:00 | 33.10726 | -96.02537 | 29702 ft | 488 kts | 64° |
| 2026-05-09 01:01 | 33.12038 | -95.98792 | 30270 ft | 491 kts | 64° |
| 2026-05-09 01:01 | 33.13358 | -95.95035 | 30724 ft | 495 kts | 64° |
| 2026-05-09 01:01 | 33.14695 | -95.91173 | 31169 ft | 501 kts | 66° |
| 2026-05-09 01:01 | 33.16032 | -95.87363 | 31567 ft | 507 kts | 65° |
| 2026-05-09 01:02 | 33.17398 | -95.83443 | 32068 ft | 510 kts | 65° |
| 2026-05-09 01:02 | 33.18768 | -95.79533 | 32529 ft | 514 kts | 65° |
| 2026-05-09 01:02 | 33.20170 | -95.75518 | 32863 ft | 521 kts | 65° |
| 2026-05-09 01:02 | 33.21551 | -95.71549 | 33189 ft | 527 kts | 66° |
| 2026-05-09 01:03 | 33.22960 | -95.67493 | 33517 ft | 533 kts | 66° |
| 2026-05-09 01:03 | 33.24387 | -95.63391 | 33987 ft | 537 kts | 66° |
| 2026-05-09 01:03 | 33.25821 | -95.59241 | 34544 ft | 538 kts | 66° |
| 2026-05-09 01:03 | 33.27266 | -95.55065 | 35092 ft | 539 kts | 66° |
| 2026-05-09 01:04 | 33.28695 | -95.50963 | 35627 ft | 540 kts | 66° |
| 2026-05-09 01:04 | 33.30127 | -95.46812 | 36164 ft | 542 kts | 66° |
| 2026-05-09 01:04 | 33.31577 | -95.42606 | 36566 ft | 545 kts | 66° |
| 2026-05-09 01:04 | 33.33024 | -95.38387 | 37066 ft | 546 kts | 66° |
| 2026-05-09 01:05 | 33.34462 | -95.34230 | 37517 ft | 548 kts | 67° |
| 2026-05-09 01:05 | 33.35930 | -95.29931 | 37859 ft | 551 kts | 67° |
| 2026-05-09 01:05 | 33.38844 | -95.21468 | 38613 ft | 555 kts | 67° |
| 2026-05-09 01:06 | 33.40316 | -95.17148 | 39068 ft | 555 kts | 67° |
| 2026-05-09 01:06 | 33.41756 | -95.12928 | 39494 ft | 556 kts | 67° |
| 2026-05-09 01:06 | 33.43226 | -95.08620 | 39975 ft | 555 kts | 67° |
| 2026-05-09 01:06 | 33.44697 | -95.04307 | 40553 ft | 553 kts | 67° |
| 2026-05-09 01:07 | 33.46144 | -95.00077 | 40838 ft | 556 kts | 66° |
| 2026-05-09 01:07 | 33.49117 | -94.91323 | 40852 ft | 570 kts | 66° |
| 2026-05-09 01:08 | 33.52106 | -94.82481 | 40865 ft | 581 kts | 67° |
| 2026-05-09 01:08 | 33.55178 | -94.73394 | 40863 ft | 592 kts | 67° |
| 2026-05-09 01:09 | 33.58303 | -94.64131 | 40867 ft | 602 kts | 66° |
| 2026-05-09 01:09 | 33.61469 | -94.54707 | 40869 ft | 612 kts | 66° |
| 2026-05-09 01:10 | 33.64650 | -94.45206 | 40873 ft | 622 kts | 67° |
| 2026-05-09 01:10 | 33.67897 | -94.35455 | 40873 ft | 628 kts | 67° |
| 2026-05-09 01:11 | 33.71157 | -94.25723 | 40859 ft | 628 kts | 65° |
| 2026-05-09 01:11 | 33.75389 | -94.16571 | 40826 ft | 626 kts | 58° |
| 2026-05-09 01:12 | 33.79712 | -94.07564 | 40855 ft | 626 kts | 58° |
| 2026-05-09 01:12 | 33.84088 | -93.98409 | 40859 ft | 626 kts | 57° |
| 2026-05-09 01:13 | 33.88377 | -93.89404 | 40863 ft | 622 kts | 58° |
| 2026-05-09 01:13 | 33.92679 | -93.80341 | 40878 ft | 620 kts | 58° |
| 2026-05-09 01:14 | 33.96936 | -93.71339 | 40885 ft | 619 kts | 58° |
| 2026-05-09 01:14 | 34.01231 | -93.62255 | 40869 ft | 619 kts | 57° |
| 2026-05-09 01:15 | 34.05612 | -93.53358 | 40858 ft | 617 kts | 52° |
| 2026-05-09 01:15 | 34.09744 | -93.44174 | 40863 ft | 619 kts | 58° |
| 2026-05-09 01:16 | 34.13959 | -93.35143 | 40887 ft | 618 kts | 58° |
| 2026-05-09 01:16 | 34.18187 | -93.26067 | 40855 ft | 618 kts | 58° |
| 2026-05-09 01:17 | 34.24498 | -93.12509 | 40885 ft | 617 kts | 58° |
| 2026-05-09 01:17 | 34.28701 | -93.03451 | 40873 ft | 618 kts | 58° |
| 2026-05-09 01:18 | 34.32920 | -92.94327 | 40853 ft | 618 kts | 59° |
| 2026-05-09 01:18 | 34.37107 | -92.85252 | 40862 ft | 618 kts | 58° |
| 2026-05-09 01:19 | 34.41318 | -92.76102 | 40876 ft | 618 kts | 58° |
| 2026-05-09 01:19 | 34.45501 | -92.66975 | 40878 ft | 618 kts | 58° |
| 2026-05-09 01:20 | 34.49675 | -92.57849 | 40881 ft | 617 kts | 58° |
| 2026-05-09 01:20 | 34.53838 | -92.48736 | 40888 ft | 617 kts | 58° |
| 2026-05-09 01:21 | 34.58005 | -92.39592 | 40900 ft | 618 kts | 58° |
| 2026-05-09 01:21 | 34.62180 | -92.30405 | 40873 ft | 618 kts | 59° |
| 2026-05-09 01:22 | 34.66340 | -92.21216 | 40879 ft | 617 kts | 58° |
| 2026-05-09 01:22 | 34.70591 | -92.12225 | 40864 ft | 618 kts | 64° |
| 2026-05-09 01:23 | 34.74313 | -92.02732 | 40918 ft | 616 kts | 60° |
| 2026-05-09 01:23 | 34.78249 | -91.93462 | 40870 ft | 617 kts | 60° |
| 2026-05-09 01:24 | 34.82221 | -91.84113 | 40875 ft | 618 kts | 60° |
| 2026-05-09 01:24 | 34.86140 | -91.74842 | 40876 ft | 617 kts | 60° |
| 2026-05-09 01:25 | 34.90075 | -91.65490 | 40869 ft | 617 kts | 60° |
| 2026-05-09 01:25 | 34.94008 | -91.56146 | 40868 ft | 617 kts | 59° |
| 2026-05-09 01:26 | 34.97932 | -91.46806 | 40880 ft | 617 kts | 60° |
| 2026-05-09 01:26 | 35.01831 | -91.37479 | 40873 ft | 617 kts | 60° |
| 2026-05-09 01:27 | 35.05733 | -91.28097 | 40859 ft | 617 kts | 60° |
| 2026-05-09 01:27 | 35.09622 | -91.18766 | 40853 ft | 617 kts | 60° |
| 2026-05-09 01:28 | 35.13540 | -91.09319 | 40860 ft | 617 kts | 60° |
| 2026-05-09 01:28 | 35.17407 | -90.99963 | 40871 ft | 617 kts | 60° |
| 2026-05-09 01:29 | 35.21276 | -90.90571 | 40876 ft | 617 kts | 60° |
| 2026-05-09 01:29 | 35.25148 | -90.81175 | 40888 ft | 617 kts | 60° |
| 2026-05-09 01:30 | 35.29003 | -90.71768 | 40887 ft | 618 kts | 60° |
| 2026-05-09 01:30 | 35.32882 | -90.62288 | 40890 ft | 619 kts | 60° |
| 2026-05-09 01:31 | 35.36726 | -90.52866 | 40885 ft | 619 kts | 60° |
| 2026-05-09 01:31 | 35.40590 | -90.43349 | 40891 ft | 619 kts | 60° |
| 2026-05-09 01:32 | 35.44445 | -90.33839 | 40892 ft | 620 kts | 61° |
| 2026-05-09 01:32 | 35.48292 | -90.24336 | 40867 ft | 620 kts | 61° |
| 2026-05-09 01:33 | 35.52112 | -90.14823 | 40879 ft | 620 kts | 61° |
| 2026-05-09 01:33 | 35.55938 | -90.05321 | 40876 ft | 620 kts | 60° |
| 2026-05-09 01:34 | 35.59774 | -89.95757 | 40877 ft | 620 kts | 61° |
| 2026-05-09 01:34 | 35.63588 | -89.86207 | 40883 ft | 620 kts | 60° |
| 2026-05-09 01:35 | 35.67390 | -89.76659 | 40886 ft | 620 kts | 61° |
| 2026-05-09 01:35 | 35.71194 | -89.67102 | 40895 ft | 620 kts | 60° |
| 2026-05-09 01:36 | 35.74990 | -89.57492 | 40889 ft | 620 kts | 61° |
| 2026-05-09 01:36 | 35.78778 | -89.47907 | 40894 ft | 620 kts | 60° |
| 2026-05-09 01:37 | 35.82560 | -89.38287 | 40908 ft | 620 kts | 61° |
| 2026-05-09 01:37 | 35.86344 | -89.28655 | 40892 ft | 620 kts | 61° |
| 2026-05-09 01:38 | 35.90104 | -89.19057 | 40892 ft | 619 kts | 61° |
| 2026-05-09 01:38 | 35.93851 | -89.09469 | 40893 ft | 618 kts | 62° |
| 2026-05-09 01:39 | 35.97566 | -88.99896 | 40904 ft | 618 kts | 61° |
| 2026-05-09 01:39 | 36.01306 | -88.90257 | 40909 ft | 619 kts | 61° |
| 2026-05-09 01:40 | 36.05011 | -88.80673 | 40911 ft | 619 kts | 62° |
| 2026-05-09 01:40 | 36.08756 | -88.70963 | 40903 ft | 620 kts | 61° |
| 2026-05-09 01:41 | 36.12461 | -88.61315 | 40907 ft | 619 kts | 61° |
| 2026-05-09 01:41 | 36.16403 | -88.51792 | 40928 ft | 619 kts | 61° |
| 2026-05-09 01:42 | 36.19877 | -88.41970 | 40915 ft | 625 kts | 62° |
| 2026-05-09 01:42 | 36.23592 | -88.32153 | 40915 ft | 627 kts | 62° |
| 2026-05-09 01:43 | 36.27347 | -88.22271 | 40892 ft | 627 kts | 62° |
| 2026-05-09 01:43 | 36.31046 | -88.12484 | 40896 ft | 628 kts | 62° |
| 2026-05-09 01:44 | 36.34760 | -88.02634 | 40895 ft | 627 kts | 62° |
| 2026-05-09 01:44 | 36.38473 | -87.92763 | 40898 ft | 627 kts | 63° |
| 2026-05-09 01:45 | 36.42186 | -87.82861 | 40910 ft | 628 kts | 63° |
| 2026-05-09 01:45 | 36.45857 | -87.73033 | 40902 ft | 628 kts | 63° |
| 2026-05-09 01:46 | 36.49565 | -87.63087 | 40920 ft | 629 kts | 62° |
| 2026-05-09 01:46 | 36.53255 | -87.53136 | 40926 ft | 630 kts | 62° |
| 2026-05-09 01:47 | 36.56930 | -87.43192 | 40934 ft | 630 kts | 63° |
| 2026-05-09 01:47 | 36.60671 | -87.33319 | 40888 ft | 627 kts | 57° |
| 2026-05-09 01:48 | 36.63301 | -87.29087 | 40964 ft | 608 kts | 38° |
| 2026-05-09 01:48 | 36.66479 | -87.25532 | 40900 ft | 606 kts | 34° |
| 2026-05-09 01:48 | 36.72753 | -87.18471 | 40915 ft | 609 kts | 36° |
| 2026-05-09 01:49 | 36.79029 | -87.11325 | 40908 ft | 608 kts | 35° |
| 2026-05-09 01:49 | 36.85291 | -87.04169 | 40903 ft | 610 kts | 36° |
| 2026-05-09 01:50 | 36.91619 | -86.96918 | 40909 ft | 609 kts | 36° |
| 2026-05-09 01:50 | 36.97860 | -86.89757 | 40914 ft | 607 kts | 36° |
| 2026-05-09 01:51 | 37.04112 | -86.82547 | 40916 ft | 605 kts | 36° |
| 2026-05-09 01:51 | 37.10317 | -86.75405 | 40923 ft | 604 kts | 36° |
| 2026-05-09 01:52 | 37.16544 | -86.68201 | 40909 ft | 605 kts | 36° |
| 2026-05-09 01:52 | 37.22732 | -86.61031 | 40904 ft | 604 kts | 36° |
| 2026-05-09 01:53 | 37.28945 | -86.53816 | 40907 ft | 603 kts | 36° |
| 2026-05-09 01:53 | 37.35090 | -86.46659 | 40911 ft | 603 kts | 36° |
| 2026-05-09 01:54 | 37.41292 | -86.39419 | 40903 ft | 604 kts | 36° |
| 2026-05-09 01:54 | 37.47494 | -86.32172 | 40851 ft | 603 kts | 36° |
| 2026-05-09 01:55 | 37.53676 | -86.24915 | 40879 ft | 602 kts | 37° |
| 2026-05-09 01:55 | 37.59786 | -86.17731 | 40868 ft | 601 kts | 36° |
| 2026-05-09 01:56 | 37.65937 | -86.10492 | 40883 ft | 601 kts | 37° |
| 2026-05-09 01:56 | 37.72070 | -86.03240 | 40910 ft | 601 kts | 36° |
| 2026-05-09 01:57 | 37.78233 | -85.95946 | 40909 ft | 601 kts | 37° |
| 2026-05-09 01:57 | 37.84357 | -85.88683 | 40908 ft | 602 kts | 36° |
| 2026-05-09 01:58 | 37.90500 | -85.81377 | 40901 ft | 602 kts | 36° |
| 2026-05-09 01:58 | 37.96608 | -85.74094 | 40908 ft | 602 kts | 37° |
| 2026-05-09 01:59 | 38.02763 | -85.66737 | 40912 ft | 602 kts | 36° |
| 2026-05-09 01:59 | 38.08888 | -85.59406 | 40912 ft | 600 kts | 34° |
| 2026-05-09 02:00 | 38.15405 | -85.53029 | 40884 ft | 592 kts | 29° |
| 2026-05-09 02:00 | 38.18696 | -85.49882 | 40379 ft | 600 kts | 29° |
| 2026-05-09 02:00 | 38.22068 | -85.46632 | 39929 ft | 603 kts | 29° |
| 2026-05-09 02:01 | 38.25442 | -85.43389 | 39478 ft | 607 kts | 29° |
| 2026-05-09 02:01 | 38.28819 | -85.40119 | 39013 ft | 608 kts | 29° |
| 2026-05-09 02:01 | 38.32183 | -85.36867 | 38580 ft | 608 kts | 29° |
| 2026-05-09 02:01 | 38.35531 | -85.33643 | 38147 ft | 611 kts | 30° |
| 2026-05-09 02:02 | 38.38921 | -85.30351 | 37666 ft | 611 kts | 30° |
| 2026-05-09 02:02 | 38.42279 | -85.27092 | 37193 ft | 608 kts | 30° |
| 2026-05-09 02:02 | 38.45665 | -85.23808 | 36677 ft | 608 kts | 30° |
| 2026-05-09 02:02 | 38.49012 | -85.20555 | 36186 ft | 607 kts | 30° |
| 2026-05-09 02:03 | 38.52410 | -85.17252 | 35686 ft | 607 kts | 30° |
| 2026-05-09 02:03 | 38.55762 | -85.13982 | 35308 ft | 607 kts | 31° |
| 2026-05-09 02:03 | 38.59121 | -85.10712 | 34915 ft | 606 kts | 30° |
| 2026-05-09 02:03 | 38.62427 | -85.07474 | 34537 ft | 605 kts | 30° |
| 2026-05-09 02:04 | 38.65823 | -85.04212 | 34149 ft | 603 kts | 28° |
| 2026-05-09 02:04 | 38.69157 | -85.00945 | 33736 ft | 604 kts | 30° |
| 2026-05-09 02:04 | 38.72474 | -84.97707 | 33336 ft | 603 kts | 30° |
| 2026-05-09 02:04 | 38.75765 | -84.94457 | 32928 ft | 599 kts | 30° |
| 2026-05-09 02:05 | 38.79077 | -84.91214 | 32532 ft | 597 kts | 30° |
| 2026-05-09 02:05 | 38.82393 | -84.87949 | 32125 ft | 596 kts | 31° |
| 2026-05-09 02:05 | 38.85670 | -84.84727 | 31738 ft | 594 kts | 31° |
| 2026-05-09 02:05 | 38.88907 | -84.81537 | 30975 ft | 589 kts | 31° |
| 2026-05-09 02:06 | 38.92155 | -84.78331 | 29831 ft | 569 kts | 31° |
| 2026-05-09 02:06 | 38.95175 | -84.75338 | 28816 ft | 546 kts | 31° |
| 2026-05-09 02:06 | 38.98142 | -84.72405 | 27788 ft | 526 kts | 31° |
| 2026-05-09 02:07 | 39.03413 | -84.66363 | 26390 ft | 497 kts | 48° |
| 2026-05-09 02:07 | 39.05357 | -84.62820 | 25745 ft | 482 kts | 49° |
| 2026-05-09 02:07 | 39.07309 | -84.59341 | 25202 ft | 475 kts | 49° |
| 2026-05-09 02:07 | 39.09248 | -84.55888 | 24575 ft | 480 kts | 49° |
| 2026-05-09 02:08 | 39.11208 | -84.52396 | 23993 ft | 482 kts | 49° |
| 2026-05-09 02:08 | 39.13176 | -84.48887 | 23918 ft | 473 kts | 49° |
| 2026-05-09 02:08 | 39.15060 | -84.45521 | 23905 ft | 463 kts | 49° |
| 2026-05-09 02:08 | 39.16925 | -84.42168 | 23903 ft | 457 kts | 50° |
| 2026-05-09 02:09 | 39.18791 | -84.38848 | 23912 ft | 459 kts | 49° |
| 2026-05-09 02:09 | 39.20658 | -84.35513 | 23918 ft | 460 kts | 49° |
| 2026-05-09 02:09 | 39.22544 | -84.32140 | 23908 ft | 462 kts | 50° |
| 2026-05-09 02:09 | 39.24426 | -84.28767 | 23902 ft | 464 kts | 50° |
| 2026-05-09 02:10 | 39.26321 | -84.25369 | 23894 ft | 465 kts | 50° |
| 2026-05-09 02:10 | 39.28207 | -84.21986 | 23900 ft | 466 kts | 50° |
| 2026-05-09 02:10 | 39.29984 | -84.18492 | 23872 ft | 471 kts | 58° |
| 2026-05-09 02:10 | 39.31470 | -84.14651 | 22579 ft | 503 kts | 61° |
| 2026-05-09 02:11 | 39.33030 | -84.10583 | 22260 ft | 506 kts | 61° |
| 2026-05-09 02:11 | 39.34603 | -84.06460 | 21892 ft | 509 kts | 60° |
| 2026-05-09 02:11 | 39.36166 | -84.02367 | 21525 ft | 508 kts | 61° |
| 2026-05-09 02:11 | 39.37729 | -83.98298 | 21132 ft | 500 kts | 61° |
| 2026-05-09 02:12 | 39.39243 | -83.94317 | 20740 ft | 491 kts | 61° |
| 2026-05-09 02:12 | 39.40763 | -83.90361 | 20341 ft | 483 kts | 60° |
| 2026-05-09 02:12 | 39.42234 | -83.86503 | 19655 ft | 484 kts | 60° |
| 2026-05-09 02:12 | 39.43743 | -83.82563 | 18903 ft | 484 kts | 61° |
| 2026-05-09 02:13 | 39.45204 | -83.78716 | 18078 ft | 471 kts | 61° |
| 2026-05-09 02:13 | 39.46638 | -83.74943 | 17304 ft | 453 kts | 61° |
| 2026-05-09 02:13 | 39.48003 | -83.71351 | 16981 ft | 437 kts | 61° |
| 2026-05-09 02:13 | 39.49318 | -83.67886 | 16724 ft | 423 kts | 60° |
| 2026-05-09 02:14 | 39.50584 | -83.64545 | 16473 ft | 411 kts | 60° |
| 2026-05-09 02:14 | 39.51841 | -83.61231 | 16213 ft | 401 kts | 60° |
| 2026-05-09 02:14 | 39.53058 | -83.58019 | 15800 ft | 397 kts | 60° |
| 2026-05-09 02:14 | 39.54279 | -83.54800 | 15211 ft | 398 kts | 60° |
| 2026-05-09 02:15 | 39.55491 | -83.51585 | 14614 ft | 398 kts | 60° |
| 2026-05-09 02:15 | 39.56668 | -83.48460 | 13899 ft | 377 kts | 60° |
| 2026-05-09 02:15 | 39.57780 | -83.45491 | 13254 ft | 352 kts | 60° |
| 2026-05-09 02:15 | 39.58867 | -83.42724 | 12753 ft | 343 kts | 54° |
| 2026-05-09 02:16 | 39.60493 | -83.40550 | 12178 ft | 329 kts | 32° |
| 2026-05-09 02:16 | 39.62301 | -83.38728 | 11586 ft | 327 kts | 33° |
| 2026-05-09 02:16 | 39.64061 | -83.36954 | 11064 ft | 319 kts | 33° |
| 2026-05-09 02:16 | 39.65763 | -83.35225 | 10975 ft | 296 kts | 33° |
| 2026-05-09 02:17 | 39.67319 | -83.33633 | 10947 ft | 274 kts | 33° |
| 2026-05-09 02:17 | 39.68777 | -83.32156 | 10940 ft | 258 kts | 32° |
| 2026-05-09 02:17 | 39.70258 | -83.30660 | 10994 ft | 277 kts | 32° |
| 2026-05-09 02:17 | 39.71822 | -83.29069 | 11002 ft | 299 kts | 36° |
| 2026-05-09 02:18 | 39.73177 | -83.26922 | 10995 ft | 308 kts | 55° |
| 2026-05-09 02:18 | 39.74330 | -83.24571 | 10973 ft | 306 kts | 53° |
| 2026-05-09 02:18 | 39.75497 | -83.22273 | 10976 ft | 304 kts | 53° |
| 2026-05-09 02:18 | 39.76662 | -83.19987 | 10980 ft | 302 kts | 53° |
| 2026-05-09 02:19 | 39.77821 | -83.17718 | 10901 ft | 304 kts | 53° |
| 2026-05-09 02:19 | 39.79025 | -83.15366 | 10170 ft | 318 kts | 53° |
| 2026-05-09 02:19 | 39.80275 | -83.12962 | 9552 ft | 322 kts | 53° |
| 2026-05-09 02:19 | 39.81529 | -83.10547 | 8933 ft | 324 kts | 54° |
| 2026-05-09 02:20 | 39.82764 | -83.08167 | 8294 ft | 306 kts | 54° |
| 2026-05-09 02:20 | 39.83898 | -83.05967 | 7991 ft | 279 kts | 54° |
| 2026-05-09 02:20 | 39.84945 | -83.03935 | 8001 ft | 269 kts | 54° |
| 2026-05-09 02:20 | 39.85999 | -83.01897 | 7966 ft | 272 kts | 54° |
| 2026-05-09 02:21 | 39.87099 | -82.99773 | 7501 ft | 293 kts | 54° |
| 2026-05-09 02:21 | 39.88266 | -82.97511 | 7084 ft | 306 kts | 55° |
| 2026-05-09 02:21 | 39.89442 | -82.95223 | 7000 ft | 296 kts | 55° |
| 2026-05-09 02:21 | 39.90439 | -82.92968 | 6942 ft | 279 kts | 73° |
| 2026-05-09 02:22 | 39.90600 | -82.90584 | 6981 ft | 257 kts | 96° |
| 2026-05-09 02:22 | 39.90491 | -82.88301 | 6890 ft | 249 kts | 97° |
| 2026-05-09 02:22 | 39.90369 | -82.85979 | 6206 ft | 267 kts | 97° |
| 2026-05-09 02:22 | 39.90250 | -82.83540 | 5567 ft | 274 kts | 96° |
| 2026-05-09 02:23 | 39.90128 | -82.81052 | 4917 ft | 277 kts | 96° |
| 2026-05-09 02:23 | 39.90005 | -82.78570 | 4179 ft | 270 kts | 96° |
| 2026-05-09 02:23 | 39.89892 | -82.76263 | 3995 ft | 243 kts | 96° |
| 2026-05-09 02:23 | 39.89800 | -82.74158 | 4004 ft | 224 kts | 96° |
| 2026-05-09 02:24 | 39.89938 | -82.72148 | 3985 ft | 223 kts | 65° |
| 2026-05-09 02:24 | 39.90966 | -82.70749 | 4015 ft | 212 kts | 19° |
| 2026-05-09 02:24 | 39.92361 | -82.70340 | 4021 ft | 203 kts | 2° |
| 2026-05-09 02:24 | 39.93794 | -82.70086 | 3666 ft | 217 kts | 2° |
| 2026-05-09 02:25 | 39.95277 | -82.70287 | 3243 ft | 213 kts | 326° |
| 2026-05-09 02:25 | 39.96375 | -82.71494 | 3050 ft | 201 kts | 309° |
| 2026-05-09 02:25 | 39.97344 | -82.72759 | 2994 ft | 191 kts | 309° |
| 2026-05-09 02:25 | 39.98247 | -82.73962 | 2900 ft | 183 kts | 303° |
| 2026-05-09 02:26 | 39.98598 | -82.75452 | 2671 ft | 169 kts | 264° |
| 2026-05-09 02:26 | 39.98550 | -82.76914 | 2409 ft | 153 kts | 271° |
| 2026-05-09 02:26 | 39.98628 | -82.78234 | 2183 ft | 140 kts | 272° |
| 2026-05-09 02:26 | 39.98693 | -82.79440 | 2051 ft | 129 kts | 272° |
| 2026-05-09 02:27 | 39.98760 | -82.80602 | 1863 ft | 128 kts | 273° |
| 2026-05-09 02:27 | 39.98827 | -82.81762 | 1682 ft | 127 kts | 274° |
| 2026-05-09 02:27 | 39.98897 | -82.82901 | 1508 ft | 127 kts | 274° |
| 2026-05-09 02:27 | 39.98963 | -82.84042 | 1335 ft | 127 kts | 274° |
| 2026-05-09 02:28 | 39.99034 | -82.85247 | 1167 ft | 135 kts | 274° |
| 2026-05-09 02:28 | 39.99105 | -82.86452 | 985 ft | 135 kts | 274° |
| 2026-05-09 02:28 | 39.99175 | -82.87663 | 816 ft | 127 kts | 275° |
| 2026-05-09 02:28 | 39.99231 | -82.88604 | 810 ft | 67 kts | 275° |
| 2026-05-09 02:29 | 39.99273 | -82.89130 | 810 ft | 52 kts | 278° |
| 2026-05-09 02:29 | 39.99295 | -82.89434 | 810 ft | 26 kts | 307° |